Aérodrome :
LOGIN :

S'inscrire | Disclaimer

   EN    FR    IT 

 










Légende :    VFR   VFR Marginal   IFR   IFR Intensif   IFR Très Intensif
Visi : 
Plafond : 
>= 8 km
>= 3000ft
5 à 8 km
1000 à 3000 ft
1500m à 5 km
500 à 1000 ft
800 à 1500m
200 à 500 ft
< 800m
< 200 ft
Symboles :   Orages  Brouillard  Fortes neiges  Fortes précipitations  Vent > 20 kt
SIGMETs :   Divers  Orages  Givrage  Turbulence  Onde Orograph.  Cendres Volcan.






- Altitude de l'aérodrome : 1674 ft
- Code IATA : BRN


LSZB - Bern Belp

DERNIER METAR :
  • 250250Z AUTO VRB01KT 6000 NCD 13/12 Q1013

METARs EXPIRÉS :
  • 250220Z AUTO VRB01KT 5000 NCD 13/13 Q1013
  • 250150Z AUTO VRB01KT 6000 NCD 13/13 Q1013
  • 250120Z AUTO VRB01KT 7000 NCD 14/14 Q1013
  • 250050Z AUTO VRB01KT 8000 NCD 14/13 Q1013
  • 250020Z AUTO VRB01KT CAVOK 14/13 Q1014
  • 242350Z AUTO VRB01KT 7000 NCD 14/14 Q1014
  • 242320Z AUTO VRB01KT CAVOK 15/14 Q1014
  • 242250Z AUTO VRB03KT CAVOK 17/14 Q1014

TAF TAF LSZB
Valide du 25 à 03h jusqu'au 25 à 12h UTC


250225Z 2503/2512 VRB02KT 6000 MIFG NSC
PROB40
TEMPO 2503/2505 4000
BECMG 2510/2512 FEW050TCU
ATIS : +41 22 417 40 76



MET'MAP, la Météo Aéronautique d'un coup d'oeil ! - Copyright ORBIFLY Décembre 2007 - Disclaimer

ORBIFLY MET'MAP TEAM :

Programmation & Développement : Alexandra Zaïnal
Sur une idée originale de : Baudouin d'Aumeries
Soutien technique & logistique : Manuel Goepfert
Assistance : Marc-Olivier Méhu




SOURCES & CREDITS :

   NOAA